Time;durP1;ratioP1;P1;durP2;ratioP2;P2;SDS_P1;SDS_P2;PMS_P1;PMS_P2;Temp;Humidity;BMP_temperature;BMP_pressure;BME280_temperature;BME280_humidity;BME280_pressure;Samples;Min_cycle;Max_cycle;Signal;HPM_P1;HPM_P2
2022/09/04 00:01:52;;;;;;;5.07;1.20;;;;;;;14.19;95.90;99879.72;5015642;28;20104;-42
2022/09/04 00:05:15;;;;;;;6.90;1.73;;;;;;;14.21;96.17;99855.06;5002647;28;20042;-42
2022/09/04 00:08:33;;;;;;;9.43;1.85;;;;;;;14.26;96.37;99849.09;5005392;28;20507;-44
2022/09/04 00:12:04;;;;;;;9.45;1.80;;;;;;;14.29;96.62;99829.66;5014473;28;20141;-44
2022/09/04 00:15:02;;;;;;;15.35;2.60;;;;;;;14.32;96.81;99811.38;4977099;28;20061;-43
2022/09/04 00:18:04;;;;;;;12.07;2.65;;;;;;;14.36;97.48;99803.81;5002272;28;20404;-42
2022/09/04 00:21:24;;;;;;;18.10;3.13;;;;;;;14.39;97.71;99801.06;5009235;28;20120;-43
2022/09/04 00:24:17;;;;;;;21.98;3.58;;;;;;;14.44;98.03;99820.16;5009014;28;20128;-43
2022/09/04 00:27:09;;;;;;;25.38;3.50;;;;;;;14.48;98.30;99809.06;5012171;28;20460;-42
2022/09/04 00:30:02;;;;;;;21.13;6.65;;;;;;;14.53;98.57;99789.16;5011543;28;20045;-44
2022/09/04 00:33:00;;;;;;;;;;;;;;;14.54;99.25;99774.81;4989311;28;20081;-43
2022/09/04 00:35:54;;;;;;;24.02;3.88;;;;;;;14.54;99.37;99774.03;5010457;28;19976;-44
2022/09/04 00:38:57;;;;;;;11.75;2.45;;;;;;;14.54;99.18;99765.66;5004869;28;20072;-51
2022/09/04 00:42:06;;;;;;;9.00;2.42;;;;;;;14.52;99.71;99760.50;5008451;28;20073;-44
2022/09/04 00:45:11;;;;;;;10.55;2.20;;;;;;;14.51;99.78;99769.25;5006348;28;20505;-43
2022/09/04 00:48:17;;;;;;;11.07;3.00;;;;;;;14.49;100.00;99754.91;5001098;28;20057;-43
2022/09/04 00:51:47;;;;;;;6.05;1.45;;;;;;;14.46;100.00;99750.13;5008821;28;20050;-44
2022/09/04 00:54:51;;;;;;;9.38;1.75;;;;;;;14.43;100.00;99742.56;5007379;28;20170;-43
2022/09/04 00:57:48;;;;;;;8.55;1.52;;;;;;;14.41;100.00;99731.84;5001470;28;20185;-43
2022/09/04 01:00:35;;;;;;;7.32;1.45;;;;;;;14.40;100.00;99719.09;5008424;28;20101;-45
2022/09/04 01:03:29;;;;;;;4.65;1.23;;;;;;;14.41;100.00;99715.13;5010201;28;20045;-43
2022/09/04 01:06:40;;;;;;;6.25;1.35;;;;;;;14.41;100.00;99717.13;5005678;28;20044;-43
2022/09/04 01:09:42;;;;;;;4.55;1.50;;;;;;;14.41;100.00;99714.31;4992811;28;20046;-45
2022/09/04 01:12:32;;;;;;;5.10;1.03;;;;;;;14.39;100.00;99700.81;5011020;28;20041;-43
2022/09/04 01:15:57;;;;;;;7.00;0.95;;;;;;;14.38;100.00;99693.63;4997004;28;20786;-43
2022/09/04 01:19:03;;;;;;;3.33;1.00;;;;;;;14.36;100.00;99670.97;4986938;28;20537;-46
2022/09/04 01:22:08;;;;;;;6.53;0.88;;;;;;;14.36;100.00;99662.63;4976708;28;20410;-42
2022/09/04 01:25:34;;;;;;;7.20;3.55;;;;;;;14.38;100.00;99637.16;4987132;28;20042;-43
2022/09/04 01:28:54;;;;;;;16.50;5.50;;;;;;;14.45;100.00;99643.53;4990335;28;20504;-43
2022/09/04 01:31:54;;;;;;;22.17;7.35;;;;;;;14.51;100.00;99641.13;4972701;28;20073;-43
2022/09/04 01:34:59;;;;;;;18.50;8.15;;;;;;;14.57;100.00;99645.91;4990537;28;20547;-42
2022/09/04 01:38:24;;;;;;;26.60;7.97;;;;;;;14.63;100.00;99649.09;4983216;28;20042;-43
2022/09/04 01:41:02;;;;;;;22.55;7.38;;;;;;;14.67;100.00;99638.72;4971709;28;20050;-42
2022/09/04 01:43:31;;;;;;;43.45;9.75;;;;;;;14.69;100.00;99630.78;4991976;28;20049;-42
2022/09/04 01:49:56;;;;;;;26.95;7.07;;;;;;;14.72;100.00;99613.25;4986569;28;20042;-42
2022/09/04 01:52:28;;;;;;;11.60;5.00;;;;;;;14.74;100.00;99610.88;4989567;28;20047;-43
2022/09/04 01:55:24;;;;;;;24.77;5.88;;;;;;;14.76;100.00;99611.28;4989752;28;20093;-47
2022/09/04 01:58:28;;;;;;;19.17;4.72;;;;;;;14.75;100.00;99595.75;4982310;28;20058;-43
2022/09/04 02:01:37;;;;;;;10.77;3.17;;;;;;;14.76;100.00;99602.91;4991331;28;20509;-42
2022/09/04 02:04:27;;;;;;;16.67;4.03;;;;;;;14.74;100.00;99594.16;4989765;28;20543;-42
2022/09/04 02:07:23;;;;;;;20.63;3.60;;;;;;;14.75;100.00;99579.03;4987827;28;20169;-43
2022/09/04 02:10:24;;;;;;;12.32;2.40;;;;;;;14.73;100.00;99556.34;4993083;28;20247;-42
2022/09/04 02:13:21;;;;;;;7.93;2.40;;;;;;;14.73;100.00;99558.31;4988818;28;20090;-42
2022/09/04 02:16:25;;;;;;;12.02;3.15;;;;;;;14.71;100.00;99539.25;4995105;28;20103;-42
2022/09/04 02:19:54;;;;;;;14.18;2.53;;;;;;;14.70;100.00;99529.28;5021826;28;20045;-41
2022/09/04 02:23:02;;;;;;;9.77;2.13;;;;;;;14.68;100.00;99512.19;5025526;28;20049;-42
2022/09/04 02:26:09;;;;;;;13.55;2.72;;;;;;;14.67;100.00;99493.88;5028133;28;20129;-42
2022/09/04 02:29:22;;;;;;;8.85;1.83;;;;;;;14.67;100.00;99482.72;5028810;28;20060;-43
2022/09/04 02:32:17;;;;;;;12.00;2.50;;;;;;;14.66;100.00;99449.72;5030737;28;20511;-43
2022/09/04 02:35:31;;;;;;;15.15;3.13;;;;;;;14.67;100.00;99442.97;5015319;28;20054;-45
2022/09/04 02:38:37;;;;;;;8.63;3.00;;;;;;;14.67;100.00;99424.22;5011366;28;20182;-42
2022/09/04 02:41:36;;;;;;;11.60;3.05;;;;;;;14.66;100.00;99431.00;5020376;28;20479;-42
2022/09/04 02:44:43;;;;;;;26.10;5.13;;;;;;;14.65;100.00;99412.69;5032670;28;20128;-43
2022/09/04 02:47:52;;;;;;;14.27;5.55;;;;;;;14.63;100.00;99403.97;5028653;28;20461;-41
2022/09/04 02:51:12;;;;;;;16.17;5.75;;;;;;;14.63;100.00;99403.97;5025407;28;20202;-42
2022/09/04 02:54:26;;;;;;;23.08;6.45;;;;;;;14.61;100.00;99378.50;5023388;28;20053;-44
2022/09/04 02:57:42;;;;;;;21.30;6.43;;;;;;;14.59;100.00;99380.88;5023517;28;20585;-43
2022/09/04 06:04:21;;;;;;;0.00;0.00;;;;;;;11.78;100.00;99809.19;521314;26;20433;-42
2022/09/04 06:07:22;;;;;;;0.00;0.00;;;;;;;11.75;100.00;99818.25;4999359;28;20456;-41
2022/09/04 06:09:58;;;;;;;0.00;0.00;;;;;;;11.73;100.00;99828.94;4989291;28;20149;-41
2022/09/04 06:12:46;;;;;;;0.00;0.00;;;;;;;11.76;100.00;99847.56;4998096;28;20039;-41
2022/09/04 06:15:56;;;;;;;0.00;0.00;;;;;;;11.72;100.00;99857.81;4995545;28;20145;-42
2022/09/04 06:22:47;;;;;;;0.00;0.00;;;;;;;11.69;100.00;99877.97;4996097;28;20033;-42
2022/09/04 06:25:47;;;;;;;0.00;0.00;;;;;;;11.65;100.00;99872.34;4992075;28;20046;-42
2022/09/04 06:28:49;;;;;;;0.00;0.00;;;;;;;11.67;100.00;99871.97;4954884;28;20050;-42
2022/09/04 06:31:18;;;;;;;0.00;0.00;;;;;;;11.65;100.00;99877.88;4936058;28;20474;-41
2022/09/04 06:37:35;;;;;;;0.00;0.00;;;;;;;11.74;100.00;99885.97;4996065;28;20046;-42
2022/09/04 06:40:09;;;;;;;0.00;0.00;;;;;;;11.76;100.00;99901.06;4966053;28;20365;-43
2022/09/04 06:42:46;;;;;;;0.00;0.00;;;;;;;11.80;100.00;99907.47;4996989;28;20050;-43
2022/09/04 06:45:16;;;;;;;0.00;0.00;;;;;;;11.82;100.00;99913.44;4982352;28;20042;-41
2022/09/04 06:47:46;;;;;;;0.00;0.00;;;;;;;11.86;100.00;99902.41;4996560;28;20046;-41
2022/09/04 06:50:57;;;;;;;0.00;0.00;;;;;;;11.91;100.00;99918.72;4993906;28;20045;-42
2022/09/04 06:54:10;;;;;;;0.00;0.00;;;;;;;11.94;100.00;99929.84;4982986;28;20050;-41
2022/09/04 06:56:55;;;;;;;0.00;0.00;;;;;;;11.96;100.00;99937.81;4977290;28;20069;-42
2022/09/04 07:03:41;;;;;;;0.00;0.00;;;;;;;12.06;100.00;99948.25;4989686;28;20121;-43
2022/09/04 07:10:42;;;;;;;0.00;0.00;;;;;;;12.14;100.00;99970.19;4999056;28;20061;-42
2022/09/04 07:13:30;;;;;;;0.00;0.00;;;;;;;12.20;100.00;99976.22;4993944;28;20105;-41
2022/09/04 07:28:32;;;;;;;0.00;0.00;;;;;;;12.42;100.00;100005.88;4993205;28;20038;-44
2022/09/04 07:31:28;;;;;;;0.00;0.00;;;;;;;12.46;100.00;100006.72;4994145;28;20077;-41
2022/09/04 07:34:45;;;;;;;0.00;0.00;;;;;;;12.52;100.00;100018.31;4989634;28;20137;-41
2022/09/04 07:37:57;;;;;;;0.00;0.00;;;;;;;12.55;100.00;100023.13;4992490;28;20121;-41
2022/09/04 07:40:49;;;;;;;0.00;0.00;;;;;;;12.60;100.00;100029.13;4969406;28;20046;-41
2022/09/04 07:51:09;;;;;;;0.00;0.00;;;;;;;12.74;100.00;100042.41;4991646;28;20026;-41
2022/09/04 07:54:23;;;;;;;0.00;0.00;;;;;;;12.80;100.00;100036.16;4992504;28;20412;-42
2022/09/04 07:57:38;;;;;;;0.00;0.00;;;;;;;12.83;100.00;100043.72;4994512;28;20046;-42
2022/09/04 08:01:02;;;;;;;0.00;0.00;;;;;;;12.90;100.00;100044.97;4988224;28;20054;-42
2022/09/04 08:03:38;;;;;;;0.00;0.00;;;;;;;12.96;100.00;100051.81;4958444;28;20049;-42
2022/09/04 08:15:14;;;;;;;0.00;0.00;;;;;;;13.29;100.00;100074.88;4988330;28;20130;-42
2022/09/04 08:18:00;;;;;;;0.00;0.00;;;;;;;13.41;100.00;100085.75;4975195;28;20050;-43
2022/09/04 08:21:05;;;;;;;0.00;0.00;;;;;;;13.51;100.00;100094.59;4974721;28;20043;-42
2022/09/04 08:24:07;;;;;;;0.00;0.00;;;;;;;13.58;100.00;100101.03;4979590;28;20050;-43
2022/09/04 08:27:08;;;;;;;0.00;0.00;;;;;;;13.70;100.00;100109.13;4946283;28;20065;-42
2022/09/04 08:30:06;;;;;;;0.00;0.00;;;;;;;13.96;100.00;100116.53;4970444;28;20047;-43
2022/09/04 08:32:52;;;;;;;0.00;0.00;;;;;;;14.14;100.00;100138.97;4983959;28;20043;-43
2022/09/04 08:39:29;;;;;;;0.00;0.00;;;;;;;14.66;100.00;100138.63;4968375;28;20057;-42
2022/09/04 08:42:43;;;;;;;0.00;0.00;;;;;;;15.03;100.00;100146.84;4976549;28;20051;-41
2022/09/04 08:45:53;;;;;;;0.00;0.00;;;;;;;15.43;100.00;100165.38;4974011;28;20159;-41
2022/09/04 08:53:13;;;;;;;0.00;0.00;;;;;;;16.66;100.00;100176.03;4963063;28;20042;-41
2022/09/04 08:56:17;;;;;;;0.00;0.00;;;;;;;17.74;100.00;100179.00;4971795;28;20138;-41
2022/09/04 08:59:38;;;;;;;0.08;0.08;;;;;;;18.53;100.00;100183.75;4974181;28;20117;-41
2022/09/04 09:02:44;;;;;;;0.00;0.00;;;;;;;19.90;100.00;100187.91;4965456;28;20146;-41
2022/09/04 09:05:42;;;;;;;0.00;0.00;;;;;;;21.07;100.00;100198.19;4974518;28;20500;-41
2022/09/04 09:08:50;;;;;;;0.00;0.00;;;;;;;21.80;100.00;100185.88;4985005;28;20078;-42
2022/09/04 09:12:25;;;;;;;0.00;0.00;;;;;;;22.49;100.00;100190.38;4988784;28;20049;-42
2022/09/04 09:15:45;;;;;;;1.92;0.43;;;;;;;23.29;100.00;100191.56;4981532;28;20145;-41
2022/09/04 09:19:05;;;;;;;5.07;0.75;;;;;;;23.63;100.00;100195.47;4994303;28;20392;-41
2022/09/04 09:22:26;;;;;;;2.90;0.73;;;;;;;23.71;100.00;100209.38;4987387;28;20519;-40
2022/09/04 09:25:20;;;;;;;6.78;0.82;;;;;;;23.03;96.35;100207.59;5000884;28;20042;-40
2022/09/04 09:36:26;;;;;;;1.85;0.20;;;;;;;20.41;100.00;100214.91;4994348;28;20046;-41
2022/09/04 09:39:45;;;;;;;2.00;0.32;;;;;;;19.95;100.00;100231.59;5001218;28;20200;-41
2022/09/04 09:47:01;;;;;;;1.70;0.50;;;;;;;20.17;100.00;100244.16;5009313;28;20057;-42
2022/09/04 09:57:00;;;;;;;1.70;0.32;;;;;;;21.93;100.00;100240.38;5016970;28;20042;-41
2022/09/04 09:59:54;;;;;;;1.30;0.40;;;;;;;22.72;100.00;100245.88;5006656;28;20096;-42
2022/09/04 10:02:30;;;;;;;3.90;1.02;;;;;;;22.95;95.29;100265.47;5000631;28;20049;-40
2022/09/04 10:05:18;;;;;;;2.58;0.40;;;;;;;22.97;95.64;100263.00;5016570;28;20140;-41
2022/09/04 10:08:20;;;;;;;3.67;0.68;;;;;;;23.32;93.29;100261.31;4991096;28;20073;-42
2022/09/04 10:11:40;;;;;;;2.55;0.47;;;;;;;23.72;91.17;100268.31;4991610;28;20050;-42
2022/09/04 10:15:02;;;;;;;1.90;0.35;;;;;;;23.98;90.22;100274.84;5017144;28;20129;-43
2022/09/04 10:18:12;;;;;;;3.92;0.40;;;;;;;24.02;86.02;100267.84;4996134;28;20133;-42
2022/09/04 10:21:11;;;;;;;2.65;0.70;;;;;;;23.28;87.64;100271.88;4996950;28;20077;-40
2022/09/04 10:24:23;;;;;;;2.40;0.40;;;;;;;22.60;85.58;100271.94;4978539;28;20125;-40
2022/09/04 10:27:13;;;;;;;3.28;0.40;;;;;;;21.26;85.41;100274.66;4983731;28;20536;-46
2022/09/04 10:30:06;;;;;;;2.92;0.70;;;;;;;20.17;86.62;100277.09;4991321;28;20141;-41
2022/09/04 10:33:05;;;;;;;5.55;0.52;;;;;;;19.24;89.33;100270.88;4992906;28;20133;-41
2022/09/04 10:36:30;;;;;;;5.80;0.68;;;;;;;18.82;92.93;100270.00;4978355;28;20094;-41
2022/09/04 10:43:25;;;;;;;1.73;0.30;;;;;;;18.46;93.98;100276.25;4994765;28;20125;-42
2022/09/04 10:46:25;;;;;;;6.38;0.68;;;;;;;19.56;98.11;100282.63;4917762;29;20561;-41
2022/09/04 10:49:17;;;;;;;4.32;0.70;;;;;;;20.66;90.58;100287.66;4995868;28;20050;-42
2022/09/04 10:52:23;;;;;;;6.20;0.65;;;;;;;21.24;88.26;100283.53;4994165;28;20034;-43
2022/09/04 10:55:55;;;;;;;3.35;0.63;;;;;;;21.26;88.38;100283.09;4993697;28;20050;-42
2022/09/04 10:59:12;;;;;;;3.05;0.77;;;;;;;20.63;90.63;100278.03;4972069;28;20042;-42
2022/09/04 11:02:14;;;;;;;4.40;0.68;;;;;;;20.08;89.48;100274.78;4974023;28;20121;-42
2022/09/04 11:05:25;;;;;;;5.40;1.58;;;;;;;19.73;91.89;100286.44;4989952;28;20062;-42
2022/09/04 11:08:35;;;;;;;4.63;1.15;;;;;;;19.69;92.04;100275.25;4964222;28;20105;-42
2022/09/04 11:11:43;;;;;;;3.22;0.77;;;;;;;19.68;93.24;100292.50;4976951;28;20057;-42
2022/09/04 11:14:58;;;;;;;5.00;0.93;;;;;;;19.62;93.33;100291.38;4976808;28;20051;-42
2022/09/04 11:18:23;;;;;;;3.17;0.70;;;;;;;19.58;93.11;100299.03;4952212;29;20509;-43
2022/09/04 11:21:41;;;;;;;3.45;0.73;;;;;;;19.42;91.59;100286.38;4974643;28;20112;-42
2022/09/04 11:24:40;;;;;;;2.72;0.80;;;;;;;19.12;89.69;100291.81;4968605;28;20182;-41
2022/09/04 11:28:05;;;;;;;4.45;0.52;;;;;;;18.83;89.07;100298.88;4976579;28;20417;-41
2022/09/04 11:31:12;;;;;;;2.05;0.80;;;;;;;18.62;88.64;100285.78;4969115;28;20043;-42
2022/09/04 11:34:12;;;;;;;4.40;0.70;;;;;;;18.60;89.16;100282.59;4976065;28;20071;-42
2022/09/04 11:36:57;;;;;;;10.13;0.90;;;;;;;18.64;88.22;100282.56;4976617;28;20445;-43
2022/09/04 11:40:09;;;;;;;3.35;0.85;;;;;;;18.63;87.10;100284.59;4975207;28;20569;-43
2022/09/04 11:47:22;;;;;;;3.80;0.70;;;;;;;18.85;84.06;100294.44;4971728;28;20131;-43
2022/09/04 11:50:46;;;;;;;2.28;0.50;;;;;;;18.82;82.39;100306.47;4974947;28;20114;-42
2022/09/04 11:54:19;;;;;;;3.47;0.65;;;;;;;18.70;81.38;100306.97;4972898;28;20106;-43
2022/09/04 11:57:12;;;;;;;1.83;0.70;;;;;;;18.54;80.02;100312.28;4964993;28;20129;-44
2022/09/04 12:00:06;;;;;;;2.08;0.60;;;;;;;18.53;79.33;100316.28;4968761;28;20133;-43
2022/09/04 12:03:26;;;;;;;5.50;0.60;;;;;;;18.55;77.07;100325.09;4986864;28;20437;-43
2022/09/04 12:06:43;;;;;;;4.13;0.60;;;;;;;18.48;76.66;100330.72;4982701;28;20057;-42
2022/09/04 12:09:59;;;;;;;2.08;0.55;;;;;;;18.42;74.72;100332.34;4972991;28;20057;-41
2022/09/04 12:41:49;;;;;;;7.75;1.00;;;;;;;18.99;72.28;100354.44;6201500;22;1372542;-42
2022/09/04 12:44:58;;;;;;;7.90;1.38;;;;;;;19.14;72.60;100361.56;6253031;23;20026;-43
2022/09/04 12:47:50;;;;;;;5.85;1.38;;;;;;;19.08;72.07;100366.03;6256435;22;20070;-44
2022/09/04 12:51:08;;;;;;;9.25;1.20;;;;;;;19.16;72.48;100371.19;6254834;22;20463;-43
2022/09/04 12:53:55;;;;;;;5.28;0.82;;;;;;;19.27;72.09;100368.28;6250450;23;20048;-43
2022/09/04 12:57:07;;;;;;;6.60;1.45;;;;;;;19.36;72.07;100374.22;6256369;22;20030;-43
2022/09/04 13:00:14;;;;;;;6.47;1.33;;;;;;;19.43;71.93;100368.59;6251810;22;20102;-42
2022/09/04 13:03:28;;;;;;;4.93;1.40;;;;;;;19.61;71.60;100374.84;6251189;23;20075;-43
2022/09/04 13:06:26;;;;;;;8.38;1.20;;;;;;;19.52;71.78;100371.69;6250303;23;20051;-43
2022/09/04 13:09:04;;;;;;;11.05;0.98;;;;;;;19.41;71.05;100379.41;6253011;23;20496;-44
2022/09/04 13:11:49;;;;;;;4.05;1.08;;;;;;;19.68;71.28;100382.38;6253849;22;20066;-43
2022/09/04 13:14:25;;;;;;;5.78;1.20;;;;;;;19.92;69.74;100378.53;6255292;22;20016;-43
2022/09/04 13:17:17;;;;;;;7.47;0.60;;;;;;;20.02;68.95;100384.03;6252882;22;20020;-42
2022/09/04 13:19:47;;;;;;;;;;;;;;;20.02;67.72;100375.59;6256513;22;20023;-42
2022/09/04 13:22:32;;;;;;;9.85;0.95;;;;;;;20.11;67.51;100388.38;6252534;23;19923;-45
2022/09/04 13:25:54;;;;;;;5.20;0.77;;;;;;;20.20;67.36;100378.22;6246799;23;20028;-43
2022/09/04 13:28:39;;;;;;;;;;;;;;;20.32;67.65;100374.91;6173997;23;20075;-42
2022/09/04 13:31:18;;;;;;;4.35;0.70;;;;;;;20.38;67.91;100373.22;6247265;22;19916;-43
2022/09/04 13:33:54;;;;;;;14.25;1.00;;;;;;;20.49;67.08;100373.88;6247144;22;20019;-43
2022/09/04 13:36:22;;;;;;;4.50;1.63;;;;;;;20.59;66.72;100372.94;6246493;22;20020;-42
2022/09/04 13:39:03;;;;;;;4.07;0.80;;;;;;;20.77;66.40;100374.72;6246640;22;20070;-44
2022/09/04 13:42:09;;;;;;;5.63;0.68;;;;;;;20.73;65.96;100376.78;6273647;22;20063;-44
2022/09/04 13:44:39;;;;;;;4.10;0.75;;;;;;;20.68;66.17;100375.22;6279448;22;20019;-43
2022/09/04 13:51:18;;;;;;;7.15;1.48;;;;;;;20.13;66.34;100366.25;6276467;22;20074;-43
2022/09/04 13:54:17;;;;;;;6.47;1.20;;;;;;;19.90;66.91;100364.91;6276944;22;20433;-42
2022/09/04 14:01:22;;;;;;;4.72;1.42;;;;;;;20.35;65.73;100343.13;6277561;22;20020;-43
2022/09/04 14:04:15;;;;;;;5.43;0.70;;;;;;;20.50;65.72;100354.97;6278333;22;20034;-46
2022/09/04 14:07:13;;;;;;;5.85;0.57;;;;;;;20.64;65.60;100352.00;6255357;22;20031;-41
2022/09/04 14:10:07;;;;;;;3.30;0.63;;;;;;;20.77;64.50;100350.19;6275299;22;20073;-42
2022/09/04 17:33:31;;;;;;;10.52;2.47;;;;;;;20.21;61.73;100260.94;6220209;23;20024;-42
2022/09/04 17:36:44;;;;;;;3.28;0.30;;;;;;;20.25;62.08;100261.75;6215074;23;20021;-41
2022/09/04 17:44:05;;;;;;;1.98;0.43;;;;;;;20.22;62.47;100240.88;6213867;23;20031;-41
2022/09/04 17:50:57;;;;;;;4.82;0.60;;;;;;;19.77;63.72;100245.06;6211976;23;20028;-41
2022/09/04 17:53:37;;;;;;;3.35;0.43;;;;;;;19.72;63.52;100228.69;6214019;23;20431;-41
2022/09/04 17:56:17;;;;;;;2.08;0.50;;;;;;;19.57;64.08;100222.41;6215637;23;20016;-41
2022/09/04 18:02:48;;;;;;;5.18;0.57;;;;;;;19.43;65.22;100240.22;6214026;23;20435;-41
2022/09/04 18:09:59;;;;;;;5.10;0.75;;;;;;;19.23;65.52;100229.97;6215698;23;20020;-41
2022/09/04 18:13:09;;;;;;;3.55;1.45;;;;;;;19.06;66.05;100233.75;6215927;22;20025;-41
2022/09/04 18:20:26;;;;;;;3.17;1.08;;;;;;;18.87;66.22;100209.09;6215634;23;20095;-41
2022/09/04 18:23:06;;;;;;;4.43;0.70;;;;;;;18.75;66.44;100218.78;6216041;23;20017;-42
2022/09/04 18:25:53;;;;;;;2.33;0.80;;;;;;;18.65;67.14;100209.25;6215704;23;20016;-42
2022/09/04 18:28:32;;;;;;;8.50;2.22;;;;;;;18.59;67.20;100205.28;6213458;23;20025;-42
2022/09/04 18:31:13;;;;;;;2.70;0.88;;;;;;;18.56;67.29;100203.31;6214199;23;20025;-42
2022/09/04 18:34:24;;;;;;;4.13;0.82;;;;;;;18.50;67.85;100207.78;6214102;23;20043;-41
2022/09/04 18:37:25;;;;;;;3.78;0.65;;;;;;;18.43;68.16;100204.97;6214390;23;20048;-41
2022/09/04 18:40:53;;;;;;;8.32;1.35;;;;;;;18.36;68.49;100202.25;6215374;23;20028;-42
2022/09/04 18:44:07;;;;;;;2.35;0.68;;;;;;;18.25;68.61;100204.31;6215225;23;20020;-42
2022/09/04 18:51:31;;;;;;;5.13;1.40;;;;;;;18.07;69.35;100192.41;6213120;23;20024;-42
2022/09/04 18:54:28;;;;;;;4.50;0.80;;;;;;;17.99;69.77;100191.66;6213341;23;20021;-43
2022/09/04 18:57:43;;;;;;;7.40;0.85;;;;;;;17.97;70.22;100184.88;6213997;23;20106;-43
2022/09/04 19:00:45;;;;;;;2.28;0.55;;;;;;;17.91;70.85;100189.31;6215218;22;20028;-42
2022/09/04 19:04:11;;;;;;;7.88;1.00;;;;;;;17.90;71.34;100171.69;6214359;23;20071;-42
2022/09/04 19:07:26;;;;;;;6.82;1.38;;;;;;;17.83;71.62;100156.94;6213680;23;20020;-44
2022/09/04 19:10:31;;;;;;;11.35;1.88;;;;;;;17.81;72.17;100160.16;6214880;22;20098;-42
2022/09/04 19:13:27;;;;;;;3.80;0.80;;;;;;;17.79;72.43;100162.56;6211445;23;20403;-42
2022/09/04 19:16:36;;;;;;;5.75;1.02;;;;;;;17.80;73.10;100166.16;6213528;23;20455;-42
2022/09/04 19:19:23;;;;;;;4.35;0.93;;;;;;;17.82;73.13;100164.53;6214004;23;20028;-42
2022/09/04 19:22:24;;;;;;;5.72;1.90;;;;;;;17.88;73.43;100167.72;6211673;23;20471;-47
2022/09/04 19:25:19;;;;;;;16.40;3.05;;;;;;;17.90;73.70;100165.28;6212104;23;20179;-42
2022/09/04 19:28:15;;;;;;;5.97;1.08;;;;;;;17.90;73.87;100154.09;6211932;23;20099;-44
2022/09/04 19:31:27;;;;;;;8.98;1.42;;;;;;;17.87;74.33;100152.13;6213423;23;20052;-42
2022/09/04 19:34:47;;;;;;;9.43;1.23;;;;;;;17.84;74.50;100153.75;6213821;23;20021;-42
2022/09/04 19:37:37;;;;;;;5.30;1.13;;;;;;;17.77;74.92;100155.75;6209945;23;20024;-42
2022/09/04 19:45:00;;;;;;;8.60;1.65;;;;;;;17.76;75.31;100143.00;6214930;23;20451;-42
2022/09/04 19:48:26;;;;;;;;;;;;;;;17.73;75.55;100138.19;6214207;22;20029;-42
2022/09/04 19:51:29;;;;;;;6.68;1.38;;;;;;;17.72;75.29;100136.59;6211392;23;19923;-42
2022/09/04 19:54:45;;;;;;;5.72;1.10;;;;;;;17.76;75.62;100132.59;6210322;23;20104;-42
2022/09/04 19:58:13;;;;;;;10.65;2.25;;;;;;;17.80;76.17;100143.75;6211109;23;20042;-42
2022/09/04 20:01:05;;;;;;;5.65;1.20;;;;;;;17.80;76.52;100138.16;6210739;23;20126;-42
2022/09/04 20:04:02;;;;;;;6.93;1.25;;;;;;;17.79;77.11;100154.16;6212925;23;20458;-47
2022/09/04 20:06:57;;;;;;;8.40;1.88;;;;;;;17.78;77.43;100155.38;6209849;23;20029;-44
2022/09/04 20:14:09;;;;;;;6.20;1.60;;;;;;;17.73;78.64;100157.81;6212688;23;20477;-42
2022/09/04 20:17:29;;;;;;;;;;;;;;;17.75;79.03;100158.19;6211457;23;20028;-42
2022/09/04 20:20:22;;;;;;;6.97;2.15;;;;;;;17.77;78.83;100158.56;6207809;23;19916;-46
2022/09/04 20:23:26;;;;;;;;;;;;;;;17.74;79.46;100157.38;6215076;22;20106;-42
2022/09/04 20:26:27;;;;;;;9.82;2.03;;;;;;;17.72;79.33;100154.19;6212175;23;19922;-48
2022/09/04 20:29:21;;;;;;;13.02;2.53;;;;;;;17.70;80.02;100145.41;6210554;23;20355;-42
2022/09/04 20:32:25;;;;;;;11.85;2.38;;;;;;;17.66;80.73;100144.63;6212363;23;20114;-42
2022/09/04 20:35:20;;;;;;;9.73;1.90;;;;;;;17.58;81.71;100137.47;6213399;23;20034;-42
2022/09/04 20:38:29;;;;;;;15.57;2.95;;;;;;;17.55;82.22;100135.50;6213317;23;20099;-42
2022/09/04 20:42:08;;;;;;;16.27;4.75;;;;;;;17.54;82.72;100137.50;6214610;23;20083;-42
2022/09/04 20:45:02;;;;;;;11.80;3.05;;;;;;;17.53;82.94;100135.88;6095986;23;20465;-42
2022/09/04 20:48:18;;;;;;;12.57;3.05;;;;;;;17.48;83.71;100127.88;6095053;23;20037;-42
2022/09/04 20:55:35;;;;;;;16.67;3.55;;;;;;;17.46;84.62;100135.09;6215943;23;20104;-41
2022/09/04 20:58:37;;;;;;;12.73;2.65;;;;;;;17.46;84.60;100123.91;6214614;23;20070;-41
2022/09/04 21:05:49;;;;;;;19.65;3.50;;;;;;;17.36;86.14;100114.38;6215898;23;20020;-45
2022/09/04 21:08:36;;;;;;;13.95;2.90;;;;;;;17.31;86.18;100103.59;6213767;23;20023;-46
2022/09/04 21:11:12;;;;;;;21.35;3.35;;;;;;;17.33;86.45;100108.78;6214652;23;20039;-42
2022/09/04 21:14:08;;;;;;;13.50;3.70;;;;;;;17.33;86.47;100114.38;6216124;23;20062;-41
2022/09/04 21:16:44;;;;;;;11.68;3.05;;;;;;;17.29;87.20;100108.78;6214524;23;20020;-42
2022/09/04 21:19:31;;;;;;;13.90;3.47;;;;;;;17.27;87.31;100116.78;6215372;23;20040;-42
2022/09/04 21:22:37;;;;;;;12.68;2.50;;;;;;;17.29;87.39;100125.56;6216539;23;20079;-41
2022/09/04 21:25:16;;;;;;;15.35;2.97;;;;;;;17.29;86.97;100131.16;6215546;23;20067;-41
2022/09/04 21:28:02;;;;;;;12.27;3.47;;;;;;;17.30;86.99;100146.75;6212068;23;20024;-45
2022/09/04 21:30:59;;;;;;;22.77;3.45;;;;;;;17.32;87.34;100141.53;6214419;23;20017;-42
2022/09/04 21:33:59;;;;;;;13.02;2.58;;;;;;;17.31;87.32;100145.56;6214777;23;20466;-42
2022/09/04 21:36:37;;;;;;;15.30;3.45;;;;;;;17.30;87.57;100131.97;6213931;23;20016;-42
2022/09/04 21:39:16;;;;;;;10.85;3.33;;;;;;;17.26;87.91;100125.59;6214506;23;20017;-41
2022/09/04 21:42:11;;;;;;;15.85;4.03;;;;;;;17.25;87.83;100135.19;6215259;23;20031;-41
2022/09/04 21:44:58;;;;;;;15.85;3.30;;;;;;;17.25;88.06;100119.19;6215829;23;20036;-43
2022/09/04 21:47:28;;;;;;;12.93;3.13;;;;;;;17.27;88.18;100127.16;6214467;23;20071;-46
2022/09/04 21:54:41;;;;;;;20.38;3.55;;;;;;;17.31;88.72;100125.19;6215097;23;20021;-42
2022/09/04 21:57:57;;;;;;;18.38;4.30;;;;;;;17.33;88.45;100109.56;6211512;23;20359;-44
2022/09/04 22:01:30;;;;;;;21.77;3.67;;;;;;;17.36;89.00;100113.56;6214408;23;20481;-42
2022/09/04 22:05:17;;;;;;;23.58;4.18;;;;;;;17.32;89.25;100102.38;6213958;23;20034;-42
2022/09/04 22:08:17;;;;;;;16.08;4.18;;;;;;;17.26;89.95;100092.78;6211672;23;20039;-43
2022/09/04 22:19:45;;;;;;;17.38;3.55;;;;;;;17.15;91.73;100105.25;6215017;23;20040;-41
2022/09/04 22:27:06;;;;;;;21.63;5.20;;;;;;;17.11;92.01;100112.84;6215336;23;20024;-42
2022/09/04 22:30:02;;;;;;;20.80;4.38;;;;;;;17.07;91.99;100112.06;6215671;23;20486;-41
2022/09/04 22:33:02;;;;;;;22.30;4.72;;;;;;;17.03;92.17;100090.50;6211645;23;20549;-42
2022/09/04 22:36:17;;;;;;;18.05;4.90;;;;;;;17.03;92.65;100082.09;6213947;23;20522;-41
2022/09/04 22:39:11;;;;;;;19.02;4.40;;;;;;;17.02;92.82;100088.13;6215687;23;20501;-41
2022/09/04 22:49:24;;;;;;;16.15;3.80;;;;;;;17.01;93.43;100094.91;6214762;23;20023;-41
2022/09/04 22:52:22;;;;;;;20.80;4.72;;;;;;;17.01;93.80;100092.09;6215676;23;20096;-41
2022/09/04 22:55:05;;;;;;;16.98;4.60;;;;;;;17.02;93.74;100080.50;6216592;23;20063;-40
2022/09/04 22:58:29;;;;;;;20.55;6.57;;;;;;;17.02;93.79;100077.69;6216262;23;20482;-41
2022/09/04 23:01:27;;;;;;;21.17;6.00;;;;;;;17.02;93.94;100083.28;6214958;23;20443;-43
2022/09/04 23:04:29;;;;;;;24.38;6.20;;;;;;;17.00;94.12;100074.53;6213605;23;20099;-41
2022/09/04 23:07:05;;;;;;;25.67;5.88;;;;;;;17.00;94.55;100063.34;6149666;23;20390;-41
2022/09/04 23:10:06;;;;;;;19.92;5.70;;;;;;;16.98;94.67;100054.56;6214247;23;20103;-41
2022/09/04 23:13:08;;;;;;;15.45;6.43;;;;;;;16.98;94.93;100059.34;6215926;23;20025;-41
2022/09/04 23:16:13;;;;;;;15.40;4.70;;;;;;;16.98;95.37;100053.75;6215317;23;20017;-41
2022/09/04 23:19:11;;;;;;;20.20;5.38;;;;;;;16.96;95.35;100053.38;6215072;23;20035;-41
2022/09/04 23:22:44;;;;;;;20.63;4.78;;;;;;;16.92;95.04;100056.16;6212090;23;20025;-41
2022/09/04 23:26:13;;;;;;;13.82;4.47;;;;;;;16.88;94.96;100029.44;6212290;23;20032;-44
2022/09/04 23:30:02;;;;;;;20.77;5.03;;;;;;;16.85;95.02;100039.44;6214811;22;20474;-40
2022/09/04 23:33:14;;;;;;;20.25;4.15;;;;;;;16.86;94.63;100038.25;6213887;22;20395;-41